sensor_id;sensor_type;location;lat;lon;timestamp;P1;durP1;ratioP1;P2;durP2;ratioP2
40871;SDS011;26591;43.264;26.940;2023-07-30T00:00:34;5.97;;;1.88;;
40871;SDS011;26591;43.264;26.940;2023-07-30T00:02:59;7.30;;;2.13;;
40871;SDS011;26591;43.264;26.940;2023-07-30T00:05:25;5.97;;;2.28;;
40871;SDS011;26591;43.264;26.940;2023-07-30T00:07:51;3.47;;;2.30;;
40871;SDS011;26591;43.264;26.940;2023-07-30T00:10:16;3.00;;;2.05;;
40871;SDS011;26591;43.264;26.940;2023-07-30T00:12:42;5.57;;;2.03;;
40871;SDS011;26591;43.264;26.940;2023-07-30T00:15:08;4.25;;;2.13;;
40871;SDS011;26591;43.264;26.940;2023-07-30T00:17:33;6.95;;;2.60;;
40871;SDS011;26591;43.264;26.940;2023-07-30T00:19:59;3.10;;;1.90;;
40871;SDS011;26591;43.264;26.940;2023-07-30T00:22:26;5.88;;;2.15;;
40871;SDS011;26591;43.264;26.940;2023-07-30T00:24:52;3.60;;;2.28;;
40871;SDS011;26591;43.264;26.940;2023-07-30T00:27:19;3.28;;;2.05;;
40871;SDS011;26591;43.264;26.940;2023-07-30T00:29:45;4.90;;;2.25;;
40871;SDS011;26591;43.264;26.940;2023-07-30T00:32:10;4.45;;;2.20;;
40871;SDS011;26591;43.264;26.940;2023-07-30T00:34:36;5.50;;;1.80;;
40871;SDS011;26591;43.264;26.940;2023-07-30T00:37:01;3.17;;;2.17;;
40871;SDS011;26591;43.264;26.940;2023-07-30T00:39:27;6.07;;;2.17;;
40871;SDS011;26591;43.264;26.940;2023-07-30T00:41:52;3.78;;;2.28;;
40871;SDS011;26591;43.264;26.940;2023-07-30T00:44:18;2.33;;;2.13;;
40871;SDS011;26591;43.264;26.940;2023-07-30T00:46:43;5.45;;;2.55;;
40871;SDS011;26591;43.264;26.940;2023-07-30T00:49:09;3.22;;;2.08;;
40871;SDS011;26591;43.264;26.940;2023-07-30T00:51:34;4.47;;;2.25;;
40871;SDS011;26591;43.264;26.940;2023-07-30T00:54:00;9.45;;;2.53;;
40871;SDS011;26591;43.264;26.940;2023-07-30T00:56:26;3.65;;;2.42;;
40871;SDS011;26591;43.264;26.940;2023-07-30T00:58:52;6.85;;;2.10;;
40871;SDS011;26591;43.264;26.940;2023-07-30T01:01:18;4.70;;;2.22;;
40871;SDS011;26591;43.264;26.940;2023-07-30T01:03:44;5.15;;;2.03;;
40871;SDS011;26591;43.264;26.940;2023-07-30T01:06:10;5.20;;;2.40;;
40871;SDS011;26591;43.264;26.940;2023-07-30T01:08:35;3.55;;;2.30;;
40871;SDS011;26591;43.264;26.940;2023-07-30T01:11:01;3.88;;;2.10;;
40871;SDS011;26591;43.264;26.940;2023-07-30T01:13:28;5.20;;;2.55;;
40871;SDS011;26591;43.264;26.940;2023-07-30T01:15:53;3.40;;;2.15;;
40871;SDS011;26591;43.264;26.940;2023-07-30T01:18:19;4.47;;;2.05;;
40871;SDS011;26591;43.264;26.940;2023-07-30T01:20:45;6.72;;;2.30;;
40871;SDS011;26591;43.264;26.940;2023-07-30T01:23:10;8.18;;;2.30;;
40871;SDS011;26591;43.264;26.940;2023-07-30T01:25:59;6.82;;;2.03;;
40871;SDS011;26591;43.264;26.940;2023-07-30T01:28:29;4.55;;;1.80;;
40871;SDS011;26591;43.264;26.940;2023-07-30T01:31:08;3.50;;;2.10;;
40871;SDS011;26591;43.264;26.940;2023-07-30T01:33:35;3.88;;;2.00;;
40871;SDS011;26591;43.264;26.940;2023-07-30T01:36:04;3.60;;;1.90;;
40871;SDS011;26591;43.264;26.940;2023-07-30T01:38:31;5.10;;;2.60;;
40871;SDS011;26591;43.264;26.940;2023-07-30T01:40:57;3.35;;;2.30;;
40871;SDS011;26591;43.264;26.940;2023-07-30T01:43:23;4.50;;;2.05;;
40871;SDS011;26591;43.264;26.940;2023-07-30T01:45:48;2.88;;;2.20;;
40871;SDS011;26591;43.264;26.940;2023-07-30T01:48:14;5.47;;;2.60;;
40871;SDS011;26591;43.264;26.940;2023-07-30T01:50:39;4.72;;;2.50;;
40871;SDS011;26591;43.264;26.940;2023-07-30T01:53:05;3.50;;;2.50;;
40871;SDS011;26591;43.264;26.940;2023-07-30T01:55:30;4.00;;;1.90;;
40871;SDS011;26591;43.264;26.940;2023-07-30T01:57:56;5.40;;;2.35;;
40871;SDS011;26591;43.264;26.940;2023-07-30T02:00:21;5.30;;;2.53;;
40871;SDS011;26591;43.264;26.940;2023-07-30T02:02:47;4.38;;;2.33;;
40871;SDS011;26591;43.264;26.940;2023-07-30T02:05:12;5.55;;;2.95;;
40871;SDS011;26591;43.264;26.940;2023-07-30T02:07:38;4.60;;;2.88;;
40871;SDS011;26591;43.264;26.940;2023-07-30T02:10:03;3.33;;;2.83;;
40871;SDS011;26591;43.264;26.940;2023-07-30T02:12:29;5.00;;;3.67;;
40871;SDS011;26591;43.264;26.940;2023-07-30T02:14:55;5.13;;;3.35;;
40871;SDS011;26591;43.264;26.940;2023-07-30T02:17:20;6.28;;;3.03;;
40871;SDS011;26591;43.264;26.940;2023-07-30T02:19:46;5.13;;;3.42;;
40871;SDS011;26591;43.264;26.940;2023-07-30T02:22:11;4.57;;;2.85;;
40871;SDS011;26591;43.264;26.940;2023-07-30T02:24:37;4.30;;;3.00;;
40871;SDS011;26591;43.264;26.940;2023-07-30T02:27:02;6.78;;;3.22;;
40871;SDS011;26591;43.264;26.940;2023-07-30T02:29:28;7.13;;;2.63;;
40871;SDS011;26591;43.264;26.940;2023-07-30T02:31:54;3.88;;;2.80;;
40871;SDS011;26591;43.264;26.940;2023-07-30T02:34:19;5.70;;;2.80;;
40871;SDS011;26591;43.264;26.940;2023-07-30T02:36:45;3.40;;;2.55;;
40871;SDS011;26591;43.264;26.940;2023-07-30T02:39:10;5.75;;;2.78;;
40871;SDS011;26591;43.264;26.940;2023-07-30T02:41:36;4.20;;;2.45;;
40871;SDS011;26591;43.264;26.940;2023-07-30T02:44:01;5.55;;;2.47;;
40871;SDS011;26591;43.264;26.940;2023-07-30T02:46:28;5.65;;;2.88;;
40871;SDS011;26591;43.264;26.940;2023-07-30T02:48:53;8.40;;;2.90;;
40871;SDS011;26591;43.264;26.940;2023-07-30T02:51:19;10.18;;;2.85;;
40871;SDS011;26591;43.264;26.940;2023-07-30T02:53:44;4.45;;;2.13;;
40871;SDS011;26591;43.264;26.940;2023-07-30T02:56:10;3.20;;;2.20;;
40871;SDS011;26591;43.264;26.940;2023-07-30T02:58:35;3.72;;;2.38;;
40871;SDS011;26591;43.264;26.940;2023-07-30T03:01:07;4.97;;;2.45;;
40871;SDS011;26591;43.264;26.940;2023-07-30T03:03:33;5.30;;;2.42;;
40871;SDS011;26591;43.264;26.940;2023-07-30T03:05:59;7.57;;;2.33;;
40871;SDS011;26591;43.264;26.940;2023-07-30T03:08:24;5.38;;;2.47;;
40871;SDS011;26591;43.264;26.940;2023-07-30T03:10:50;4.82;;;2.47;;
40871;SDS011;26591;43.264;26.940;2023-07-30T03:13:15;5.13;;;2.40;;
40871;SDS011;26591;43.264;26.940;2023-07-30T03:15:41;4.07;;;2.15;;
40871;SDS011;26591;43.264;26.940;2023-07-30T03:18:06;6.28;;;2.60;;
40871;SDS011;26591;43.264;26.940;2023-07-30T03:20:32;6.97;;;2.33;;
40871;SDS011;26591;43.264;26.940;2023-07-30T03:22:57;5.85;;;2.30;;
40871;SDS011;26591;43.264;26.940;2023-07-30T03:25:23;5.55;;;2.67;;
40871;SDS011;26591;43.264;26.940;2023-07-30T03:27:48;9.55;;;2.75;;
40871;SDS011;26591;43.264;26.940;2023-07-30T03:30:14;6.43;;;3.00;;
40871;SDS011;26591;43.264;26.940;2023-07-30T03:32:40;4.93;;;3.08;;
40871;SDS011;26591;43.264;26.940;2023-07-30T03:35:07;5.55;;;3.08;;
40871;SDS011;26591;43.264;26.940;2023-07-30T03:37:37;10.88;;;3.45;;
40871;SDS011;26591;43.264;26.940;2023-07-30T03:40:03;10.20;;;3.80;;
40871;SDS011;26591;43.264;26.940;2023-07-30T03:42:29;11.00;;;2.97;;
40871;SDS011;26591;43.264;26.940;2023-07-30T03:44:55;8.18;;;2.88;;
40871;SDS011;26591;43.264;26.940;2023-07-30T03:47:20;8.80;;;3.13;;
40871;SDS011;26591;43.264;26.940;2023-07-30T03:49:46;6.15;;;3.25;;
40871;SDS011;26591;43.264;26.940;2023-07-30T03:52:11;4.93;;;3.15;;
40871;SDS011;26591;43.264;26.940;2023-07-30T03:54:37;8.25;;;2.95;;
40871;SDS011;26591;43.264;26.940;2023-07-30T03:57:03;5.80;;;3.55;;
40871;SDS011;26591;43.264;26.940;2023-07-30T03:59:28;5.05;;;2.95;;
40871;SDS011;26591;43.264;26.940;2023-07-30T04:01:54;7.63;;;3.03;;
40871;SDS011;26591;43.264;26.940;2023-07-30T04:04:20;7.20;;;3.40;;
40871;SDS011;26591;43.264;26.940;2023-07-30T04:06:45;3.85;;;2.90;;
40871;SDS011;26591;43.264;26.940;2023-07-30T04:09:11;11.02;;;3.20;;
40871;SDS011;26591;43.264;26.940;2023-07-30T04:11:36;8.88;;;3.28;;
40871;SDS011;26591;43.264;26.940;2023-07-30T04:14:02;7.57;;;2.85;;
40871;SDS011;26591;43.264;26.940;2023-07-30T04:16:30;4.18;;;2.85;;
40871;SDS011;26591;43.264;26.940;2023-07-30T04:18:55;6.63;;;2.85;;
40871;SDS011;26591;43.264;26.940;2023-07-30T04:21:21;5.40;;;2.67;;
40871;SDS011;26591;43.264;26.940;2023-07-30T04:23:46;7.07;;;3.50;;
40871;SDS011;26591;43.264;26.940;2023-07-30T04:26:13;4.60;;;2.63;;
40871;SDS011;26591;43.264;26.940;2023-07-30T04:28:38;6.35;;;3.05;;
40871;SDS011;26591;43.264;26.940;2023-07-30T04:31:04;10.32;;;3.00;;
40871;SDS011;26591;43.264;26.940;2023-07-30T04:33:29;6.70;;;3.30;;
40871;SDS011;26591;43.264;26.940;2023-07-30T04:35:55;8.32;;;3.03;;
40871;SDS011;26591;43.264;26.940;2023-07-30T04:38:20;8.07;;;3.17;;
40871;SDS011;26591;43.264;26.940;2023-07-30T04:40:46;4.32;;;2.75;;
40871;SDS011;26591;43.264;26.940;2023-07-30T04:43:11;5.80;;;3.47;;
40871;SDS011;26591;43.264;26.940;2023-07-30T04:45:37;5.70;;;3.00;;
40871;SDS011;26591;43.264;26.940;2023-07-30T04:48:02;12.05;;;3.33;;
40871;SDS011;26591;43.264;26.940;2023-07-30T04:50:28;7.47;;;3.13;;
40871;SDS011;26591;43.264;26.940;2023-07-30T04:52:53;7.15;;;3.28;;
40871;SDS011;26591;43.264;26.940;2023-07-30T04:55:19;5.57;;;3.10;;
40871;SDS011;26591;43.264;26.940;2023-07-30T04:57:44;7.13;;;3.75;;
40871;SDS011;26591;43.264;26.940;2023-07-30T05:00:10;9.32;;;3.47;;
40871;SDS011;26591;43.264;26.940;2023-07-30T05:02:36;7.78;;;3.72;;
40871;SDS011;26591;43.264;26.940;2023-07-30T05:05:01;8.63;;;3.78;;
40871;SDS011;26591;43.264;26.940;2023-07-30T05:07:27;7.15;;;3.55;;
40871;SDS011;26591;43.264;26.940;2023-07-30T05:09:52;6.85;;;3.95;;
40871;SDS011;26591;43.264;26.940;2023-07-30T05:12:18;19.60;;;4.65;;
40871;SDS011;26591;43.264;26.940;2023-07-30T05:14:43;8.10;;;3.67;;
40871;SDS011;26591;43.264;26.940;2023-07-30T05:17:09;5.10;;;3.40;;
40871;SDS011;26591;43.264;26.940;2023-07-30T05:19:34;7.45;;;3.47;;
40871;SDS011;26591;43.264;26.940;2023-07-30T05:22:00;8.88;;;3.70;;
40871;SDS011;26591;43.264;26.940;2023-07-30T05:24:26;6.13;;;3.45;;
40871;SDS011;26591;43.264;26.940;2023-07-30T05:26:52;8.43;;;3.88;;
40871;SDS011;26591;43.264;26.940;2023-07-30T05:29:18;8.13;;;3.85;;
40871;SDS011;26591;43.264;26.940;2023-07-30T05:31:43;9.05;;;4.38;;
40871;SDS011;26591;43.264;26.940;2023-07-30T05:34:09;8.55;;;4.10;;
40871;SDS011;26591;43.264;26.940;2023-07-30T05:36:34;8.18;;;4.18;;
40871;SDS011;26591;43.264;26.940;2023-07-30T05:39:00;10.82;;;3.65;;
40871;SDS011;26591;43.264;26.940;2023-07-30T05:41:25;7.00;;;3.20;;
40871;SDS011;26591;43.264;26.940;2023-07-30T05:43:51;8.88;;;3.45;;
40871;SDS011;26591;43.264;26.940;2023-07-30T05:46:16;20.42;;;4.20;;
40871;SDS011;26591;43.264;26.940;2023-07-30T05:48:42;6.50;;;3.20;;
40871;SDS011;26591;43.264;26.940;2023-07-30T05:51:07;6.47;;;3.67;;
40871;SDS011;26591;43.264;26.940;2023-07-30T05:53:33;9.38;;;3.22;;
40871;SDS011;26591;43.264;26.940;2023-07-30T05:55:58;7.13;;;2.83;;
40871;SDS011;26591;43.264;26.940;2023-07-30T05:58:24;9.82;;;3.20;;
40871;SDS011;26591;43.264;26.940;2023-07-30T06:00:49;5.05;;;2.75;;
40871;SDS011;26591;43.264;26.940;2023-07-30T06:03:15;4.65;;;2.25;;
40871;SDS011;26591;43.264;26.940;2023-07-30T06:05:40;4.32;;;2.70;;
40871;SDS011;26591;43.264;26.940;2023-07-30T06:08:07;4.60;;;3.10;;
40871;SDS011;26591;43.264;26.940;2023-07-30T06:10:36;5.20;;;3.00;;
40871;SDS011;26591;43.264;26.940;2023-07-30T06:13:05;4.75;;;2.90;;
40871;SDS011;26591;43.264;26.940;2023-07-30T06:15:31;5.32;;;2.78;;
40871;SDS011;26591;43.264;26.940;2023-07-30T06:17:58;4.93;;;2.67;;
40871;SDS011;26591;43.264;26.940;2023-07-30T06:20:23;14.32;;;3.95;;
40871;SDS011;26591;43.264;26.940;2023-07-30T06:22:49;7.85;;;2.75;;
40871;SDS011;26591;43.264;26.940;2023-07-30T06:25:14;4.05;;;2.65;;
40871;SDS011;26591;43.264;26.940;2023-07-30T06:27:40;6.10;;;3.05;;
40871;SDS011;26591;43.264;26.940;2023-07-30T06:30:05;4.13;;;2.53;;
40871;SDS011;26591;43.264;26.940;2023-07-30T06:32:31;5.75;;;2.55;;
40871;SDS011;26591;43.264;26.940;2023-07-30T06:34:57;4.13;;;2.15;;
40871;SDS011;26591;43.264;26.940;2023-07-30T06:37:23;8.88;;;2.65;;
40871;SDS011;26591;43.264;26.940;2023-07-30T06:39:48;6.43;;;2.65;;
40871;SDS011;26591;43.264;26.940;2023-07-30T06:42:14;4.78;;;2.75;;
40871;SDS011;26591;43.264;26.940;2023-07-30T06:44:39;9.57;;;2.28;;
40871;SDS011;26591;43.264;26.940;2023-07-30T06:47:05;11.38;;;2.60;;
40871;SDS011;26591;43.264;26.940;2023-07-30T06:49:30;5.80;;;2.60;;
40871;SDS011;26591;43.264;26.940;2023-07-30T06:51:59;7.50;;;2.45;;
40871;SDS011;26591;43.264;26.940;2023-07-30T06:54:24;7.63;;;2.67;;
40871;SDS011;26591;43.264;26.940;2023-07-30T06:56:50;12.35;;;2.70;;
40871;SDS011;26591;43.264;26.940;2023-07-30T06:59:15;7.15;;;2.42;;
40871;SDS011;26591;43.264;26.940;2023-07-30T07:01:41;8.20;;;2.90;;
40871;SDS011;26591;43.264;26.940;2023-07-30T07:04:06;6.00;;;2.80;;
40871;SDS011;26591;43.264;26.940;2023-07-30T07:06:32;8.27;;;2.75;;
40871;SDS011;26591;43.264;26.940;2023-07-30T07:08:57;8.85;;;2.90;;
40871;SDS011;26591;43.264;26.940;2023-07-30T07:11:23;5.97;;;2.70;;
40871;SDS011;26591;43.264;26.940;2023-07-30T07:13:48;8.38;;;2.92;;
40871;SDS011;26591;43.264;26.940;2023-07-30T07:16:14;9.32;;;2.78;;
40871;SDS011;26591;43.264;26.940;2023-07-30T07:18:39;6.80;;;2.90;;
40871;SDS011;26591;43.264;26.940;2023-07-30T07:21:05;5.65;;;2.55;;
40871;SDS011;26591;43.264;26.940;2023-07-30T07:23:30;6.65;;;2.47;;
40871;SDS011;26591;43.264;26.940;2023-07-30T07:25:57;4.07;;;2.78;;
40871;SDS011;26591;43.264;26.940;2023-07-30T07:28:22;4.47;;;2.30;;
40871;SDS011;26591;43.264;26.940;2023-07-30T07:30:48;2.95;;;2.25;;
40871;SDS011;26591;43.264;26.940;2023-07-30T07:33:13;2.92;;;2.22;;
40871;SDS011;26591;43.264;26.940;2023-07-30T07:35:39;4.68;;;2.40;;
40871;SDS011;26591;43.264;26.940;2023-07-30T07:38:05;3.78;;;2.33;;
40871;SDS011;26591;43.264;26.940;2023-07-30T07:40:35;4.88;;;2.33;;
40871;SDS011;26591;43.264;26.940;2023-07-30T07:43:04;4.82;;;2.30;;
40871;SDS011;26591;43.264;26.940;2023-07-30T07:45:30;3.85;;;2.25;;
40871;SDS011;26591;43.264;26.940;2023-07-30T07:47:56;4.03;;;1.77;;
40871;SDS011;26591;43.264;26.940;2023-07-30T07:50:21;3.63;;;2.13;;
40871;SDS011;26591;43.264;26.940;2023-07-30T07:52:47;5.43;;;2.10;;
40871;SDS011;26591;43.264;26.940;2023-07-30T07:55:12;4.25;;;2.05;;
40871;SDS011;26591;43.264;26.940;2023-07-30T07:57:38;4.95;;;2.50;;
40871;SDS011;26591;43.264;26.940;2023-07-30T08:00:03;5.38;;;2.20;;
40871;SDS011;26591;43.264;26.940;2023-07-30T08:02:30;4.05;;;2.00;;
40871;SDS011;26591;43.264;26.940;2023-07-30T08:04:56;3.03;;;1.83;;
40871;SDS011;26591;43.264;26.940;2023-07-30T08:07:21;4.63;;;1.85;;
40871;SDS011;26591;43.264;26.940;2023-07-30T08:09:46;6.22;;;2.10;;
40871;SDS011;26591;43.264;26.940;2023-07-30T08:12:12;2.75;;;1.83;;
40871;SDS011;26591;43.264;26.940;2023-07-30T08:14:39;3.03;;;1.70;;
40871;SDS011;26591;43.264;26.940;2023-07-30T08:17:04;4.35;;;1.70;;
40871;SDS011;26591;43.264;26.940;2023-07-30T08:19:30;18.73;;;2.22;;
40871;SDS011;26591;43.264;26.940;2023-07-30T08:21:56;2.58;;;1.73;;
40871;SDS011;26591;43.264;26.940;2023-07-30T08:24:23;3.22;;;1.70;;
40871;SDS011;26591;43.264;26.940;2023-07-30T08:26:48;2.72;;;1.70;;
40871;SDS011;26591;43.264;26.940;2023-07-30T08:29:14;2.95;;;1.92;;
40871;SDS011;26591;43.264;26.940;2023-07-30T08:31:40;2.13;;;1.60;;
40871;SDS011;26591;43.264;26.940;2023-07-30T08:34:06;2.25;;;1.42;;
40871;SDS011;26591;43.264;26.940;2023-07-30T08:36:31;3.90;;;1.75;;
40871;SDS011;26591;43.264;26.940;2023-07-30T08:38:57;2.50;;;1.80;;
40871;SDS011;26591;43.264;26.940;2023-07-30T08:41:23;5.32;;;1.88;;
40871;SDS011;26591;43.264;26.940;2023-07-30T08:43:48;2.85;;;1.60;;
40871;SDS011;26591;43.264;26.940;2023-07-30T08:46:15;2.45;;;2.00;;
40871;SDS011;26591;43.264;26.940;2023-07-30T08:48:41;3.55;;;1.65;;
40871;SDS011;26591;43.264;26.940;2023-07-30T08:51:08;7.40;;;1.60;;
40871;SDS011;26591;43.264;26.940;2023-07-30T08:53:35;3.72;;;1.90;;
40871;SDS011;26591;43.264;26.940;2023-07-30T08:56:01;3.47;;;1.92;;
40871;SDS011;26591;43.264;26.940;2023-07-30T08:58:27;7.28;;;1.85;;
40871;SDS011;26591;43.264;26.940;2023-07-30T09:00:55;3.00;;;1.75;;
40871;SDS011;26591;43.264;26.940;2023-07-30T09:03:21;4.13;;;2.00;;
40871;SDS011;26591;43.264;26.940;2023-07-30T09:05:50;2.67;;;1.65;;
40871;SDS011;26591;43.264;26.940;2023-07-30T09:08:16;2.03;;;1.55;;
40871;SDS011;26591;43.264;26.940;2023-07-30T09:10:42;2.22;;;1.67;;
40871;SDS011;26591;43.264;26.940;2023-07-30T09:13:08;5.07;;;1.85;;
40871;SDS011;26591;43.264;26.940;2023-07-30T09:15:34;3.08;;;1.63;;
40871;SDS011;26591;43.264;26.940;2023-07-30T09:18:05;2.50;;;1.60;;
40871;SDS011;26591;43.264;26.940;2023-07-30T09:20:38;3.30;;;1.60;;
40871;SDS011;26591;43.264;26.940;2023-07-30T09:23:07;6.25;;;1.88;;
40871;SDS011;26591;43.264;26.940;2023-07-30T09:25:36;3.95;;;1.90;;
40871;SDS011;26591;43.264;26.940;2023-07-30T09:28:02;3.47;;;1.83;;
40871;SDS011;26591;43.264;26.940;2023-07-30T09:30:28;4.35;;;2.03;;
40871;SDS011;26591;43.264;26.940;2023-07-30T09:32:55;3.22;;;2.10;;
40871;SDS011;26591;43.264;26.940;2023-07-30T09:35:22;2.22;;;1.80;;
40871;SDS011;26591;43.264;26.940;2023-07-30T09:37:50;6.35;;;1.90;;
40871;SDS011;26591;43.264;26.940;2023-07-30T09:40:29;4.95;;;1.90;;
40871;SDS011;26591;43.264;26.940;2023-07-30T09:42:56;2.72;;;2.22;;
40871;SDS011;26591;43.264;26.940;2023-07-30T09:45:23;5.30;;;2.42;;
40871;SDS011;26591;43.264;26.940;2023-07-30T09:47:50;2.97;;;2.17;;
40871;SDS011;26591;43.264;26.940;2023-07-30T09:50:17;4.10;;;2.20;;
40871;SDS011;26591;43.264;26.940;2023-07-30T09:52:43;4.53;;;3.17;;
40871;SDS011;26591;43.264;26.940;2023-07-30T09:55:09;8.63;;;3.00;;
40871;SDS011;26591;43.264;26.940;2023-07-30T09:57:36;5.68;;;3.03;;
40871;SDS011;26591;43.264;26.940;2023-07-30T10:00:06;5.53;;;2.47;;
40871;SDS011;26591;43.264;26.940;2023-07-30T10:02:37;6.32;;;2.42;;
40871;SDS011;26591;43.264;26.940;2023-07-30T10:05:16;2.72;;;2.25;;
40871;SDS011;26591;43.264;26.940;2023-07-30T10:07:53;4.25;;;2.13;;
40871;SDS011;26591;43.264;26.940;2023-07-30T10:10:23;3.00;;;2.40;;
40871;SDS011;26591;43.264;26.940;2023-07-30T10:12:51;4.05;;;2.78;;
40871;SDS011;26591;43.264;26.940;2023-07-30T10:15:21;3.88;;;2.42;;
40871;SDS011;26591;43.264;26.940;2023-07-30T10:17:48;5.15;;;2.42;;
40871;SDS011;26591;43.264;26.940;2023-07-30T10:20:20;5.70;;;2.50;;
40871;SDS011;26591;43.264;26.940;2023-07-30T10:22:50;6.13;;;2.25;;
40871;SDS011;26591;43.264;26.940;2023-07-30T10:25:18;6.32;;;2.25;;
40871;SDS011;26591;43.264;26.940;2023-07-30T10:27:53;3.22;;;2.33;;
40871;SDS011;26591;43.264;26.940;2023-07-30T10:30:19;4.55;;;2.00;;
40871;SDS011;26591;43.264;26.940;2023-07-30T10:38:18;4.23;;;2.43;;
40871;SDS011;26591;43.264;26.940;2023-07-30T10:41:08;4.72;;;2.20;;
40871;SDS011;26591;43.264;26.940;2023-07-30T10:43:36;5.20;;;2.00;;
40871;SDS011;26591;43.264;26.940;2023-07-30T10:46:07;3.70;;;2.38;;
40871;SDS011;26591;43.264;26.940;2023-07-30T10:48:37;2.15;;;1.95;;
40871;SDS011;26591;43.264;26.940;2023-07-30T10:51:08;2.15;;;1.70;;
40871;SDS011;26591;43.264;26.940;2023-07-30T10:53:35;5.00;;;2.05;;
40871;SDS011;26591;43.264;26.940;2023-07-30T10:56:04;3.03;;;2.20;;
40871;SDS011;26591;43.264;26.940;2023-07-30T10:58:32;4.15;;;2.08;;
40871;SDS011;26591;43.264;26.940;2023-07-30T11:00:58;3.42;;;2.30;;
40871;SDS011;26591;43.264;26.940;2023-07-30T11:03:26;3.60;;;2.10;;
40871;SDS011;26591;43.264;26.940;2023-07-30T11:05:53;3.78;;;2.03;;
40871;SDS011;26591;43.264;26.940;2023-07-30T11:08:21;4.72;;;2.33;;
40871;SDS011;26591;43.264;26.940;2023-07-30T11:10:57;4.38;;;2.10;;
40871;SDS011;26591;43.264;26.940;2023-07-30T11:13:22;6.30;;;2.40;;
40871;SDS011;26591;43.264;26.940;2023-07-30T11:15:48;3.03;;;2.15;;
40871;SDS011;26591;43.264;26.940;2023-07-30T11:18:13;3.05;;;2.08;;
40871;SDS011;26591;43.264;26.940;2023-07-30T11:20:39;2.63;;;2.15;;
40871;SDS011;26591;43.264;26.940;2023-07-30T11:23:21;3.42;;;2.30;;
40871;SDS011;26591;43.264;26.940;2023-07-30T11:25:48;4.35;;;2.20;;
40871;SDS011;26591;43.264;26.940;2023-07-30T11:28:15;2.63;;;2.33;;
40871;SDS011;26591;43.264;26.940;2023-07-30T11:31:02;2.85;;;2.28;;
40871;SDS011;26591;43.264;26.940;2023-07-30T11:33:36;2.60;;;2.35;;
40871;SDS011;26591;43.264;26.940;2023-07-30T11:36:05;3.83;;;2.42;;
40871;SDS011;26591;43.264;26.940;2023-07-30T11:38:33;4.28;;;2.55;;
40871;SDS011;26591;43.264;26.940;2023-07-30T11:40:59;5.47;;;2.30;;
40871;SDS011;26591;43.264;26.940;2023-07-30T11:43:25;3.78;;;2.70;;
40871;SDS011;26591;43.264;26.940;2023-07-30T11:46:11;4.32;;;2.30;;
40871;SDS011;26591;43.264;26.940;2023-07-30T11:48:39;5.15;;;3.03;;
40871;SDS011;26591;43.264;26.940;2023-07-30T11:51:05;5.57;;;2.30;;
40871;SDS011;26591;43.264;26.940;2023-07-30T11:53:47;4.78;;;2.28;;
40871;SDS011;26591;43.264;26.940;2023-07-30T11:56:16;4.00;;;2.30;;
40871;SDS011;26591;43.264;26.940;2023-07-30T11:58:43;3.63;;;2.13;;
40871;SDS011;26591;43.264;26.940;2023-07-30T12:01:09;3.05;;;1.92;;
40871;SDS011;26591;43.264;26.940;2023-07-30T12:03:34;3.97;;;2.03;;
40871;SDS011;26591;43.264;26.940;2023-07-30T12:06:04;2.50;;;2.30;;
40871;SDS011;26591;43.264;26.940;2023-07-30T12:08:30;4.65;;;2.08;;
40871;SDS011;26591;43.264;26.940;2023-07-30T12:11:01;4.60;;;2.25;;
40871;SDS011;26591;43.264;26.940;2023-07-30T12:13:28;3.08;;;2.10;;
40871;SDS011;26591;43.264;26.940;2023-07-30T12:15:54;4.03;;;2.10;;
40871;SDS011;26591;43.264;26.940;2023-07-30T12:18:21;3.75;;;2.33;;
40871;SDS011;26591;43.264;26.940;2023-07-30T12:20:51;6.35;;;2.28;;
40871;SDS011;26591;43.264;26.940;2023-07-30T12:23:17;2.33;;;2.05;;
40871;SDS011;26591;43.264;26.940;2023-07-30T12:25:43;4.03;;;2.10;;
40871;SDS011;26591;43.264;26.940;2023-07-30T12:28:09;3.13;;;1.80;;
40871;SDS011;26591;43.264;26.940;2023-07-30T12:30:35;4.68;;;2.00;;
40871;SDS011;26591;43.264;26.940;2023-07-30T12:33:02;5.40;;;2.10;;
40871;SDS011;26591;43.264;26.940;2023-07-30T12:37:56;4.45;;;2.45;;
40871;SDS011;26591;43.264;26.940;2023-07-30T12:40:22;2.47;;;2.28;;
40871;SDS011;26591;43.264;26.940;2023-07-30T12:42:48;3.33;;;2.40;;
40871;SDS011;26591;43.264;26.940;2023-07-30T12:45:13;3.00;;;2.05;;
40871;SDS011;26591;43.264;26.940;2023-07-30T12:47:39;4.50;;;2.20;;
40871;SDS011;26591;43.264;26.940;2023-07-30T12:50:05;3.15;;;2.20;;
40871;SDS011;26591;43.264;26.940;2023-07-30T12:52:32;4.40;;;2.50;;
40871;SDS011;26591;43.264;26.940;2023-07-30T12:54:58;3.05;;;2.30;;
40871;SDS011;26591;43.264;26.940;2023-07-30T12:57:24;2.60;;;2.10;;
40871;SDS011;26591;43.264;26.940;2023-07-30T12:59:50;4.57;;;2.33;;
40871;SDS011;26591;43.264;26.940;2023-07-30T13:02:15;3.05;;;2.30;;
40871;SDS011;26591;43.264;26.940;2023-07-30T13:04:41;4.40;;;2.33;;
40871;SDS011;26591;43.264;26.940;2023-07-30T13:07:06;2.67;;;2.25;;
40871;SDS011;26591;43.264;26.940;2023-07-30T13:09:32;3.88;;;2.00;;
40871;SDS011;26591;43.264;26.940;2023-07-30T13:11:58;4.88;;;2.20;;
40871;SDS011;26591;43.264;26.940;2023-07-30T13:14:23;5.65;;;2.45;;
40871;SDS011;26591;43.264;26.940;2023-07-30T13:16:49;4.93;;;2.60;;
40871;SDS011;26591;43.264;26.940;2023-07-30T13:19:15;3.33;;;2.17;;
40871;SDS011;26591;43.264;26.940;2023-07-30T13:21:40;4.75;;;2.30;;
40871;SDS011;26591;43.264;26.940;2023-07-30T13:24:06;2.67;;;2.35;;
40871;SDS011;26591;43.264;26.940;2023-07-30T13:26:31;4.22;;;2.10;;
40871;SDS011;26591;43.264;26.940;2023-07-30T13:28:57;6.43;;;2.42;;
40871;SDS011;26591;43.264;26.940;2023-07-30T13:31:22;3.65;;;1.98;;
40871;SDS011;26591;43.264;26.940;2023-07-30T13:33:48;3.95;;;2.40;;
40871;SDS011;26591;43.264;26.940;2023-07-30T13:36:14;3.85;;;2.33;;
40871;SDS011;26591;43.264;26.940;2023-07-30T13:38:40;4.18;;;2.25;;
40871;SDS011;26591;43.264;26.940;2023-07-30T13:41:06;3.53;;;2.38;;
40871;SDS011;26591;43.264;26.940;2023-07-30T13:43:32;4.72;;;2.25;;
40871;SDS011;26591;43.264;26.940;2023-07-30T13:45:57;3.40;;;2.00;;
40871;SDS011;26591;43.264;26.940;2023-07-30T13:48:24;2.47;;;2.13;;
40871;SDS011;26591;43.264;26.940;2023-07-30T13:50:50;2.20;;;1.70;;
40871;SDS011;26591;43.264;26.940;2023-07-30T13:53:15;4.18;;;2.10;;
40871;SDS011;26591;43.264;26.940;2023-07-30T13:55:41;3.97;;;1.70;;
40871;SDS011;26591;43.264;26.940;2023-07-30T13:58:08;7.80;;;1.60;;
40871;SDS011;26591;43.264;26.940;2023-07-30T14:00:34;5.47;;;1.98;;
40871;SDS011;26591;43.264;26.940;2023-07-30T14:02:59;3.60;;;2.05;;
40871;SDS011;26591;43.264;26.940;2023-07-30T14:05:25;2.78;;;1.50;;
40871;SDS011;26591;43.264;26.940;2023-07-30T14:07:52;3.33;;;1.50;;
40871;SDS011;26591;43.264;26.940;2023-07-30T14:10:19;5.68;;;1.52;;
40871;SDS011;26591;43.264;26.940;2023-07-30T14:12:45;4.78;;;1.73;;
40871;SDS011;26591;43.264;26.940;2023-07-30T14:15:10;4.32;;;1.30;;
40871;SDS011;26591;43.264;26.940;2023-07-30T14:17:36;1.80;;;1.50;;
40871;SDS011;26591;43.264;26.940;2023-07-30T14:20:01;2.25;;;1.35;;
40871;SDS011;26591;43.264;26.940;2023-07-30T14:22:27;3.42;;;1.50;;
40871;SDS011;26591;43.264;26.940;2023-07-30T14:24:52;3.15;;;1.40;;
40871;SDS011;26591;43.264;26.940;2023-07-30T14:27:18;5.75;;;1.60;;
40871;SDS011;26591;43.264;26.940;2023-07-30T14:29:44;4.15;;;1.65;;
40871;SDS011;26591;43.264;26.940;2023-07-30T14:32:09;3.60;;;1.60;;
40871;SDS011;26591;43.264;26.940;2023-07-30T14:34:37;1.98;;;1.48;;
40871;SDS011;26591;43.264;26.940;2023-07-30T14:37:02;4.90;;;1.50;;